Time;durP1;ratioP1;P1;durP2;ratioP2;P2;SDS_P1;SDS_P2;PMS_P1;PMS_P2;Temp;Humidity;BMP_temperature;BMP_pressure;BME280_temperature;BME280_humidity;BME280_pressure;Samples;Min_cycle;Max_cycle;Signal;HPM_P1;HPM_P2
2023/12/21 00:00:43;;;;;;;;;;;;;;;10.71;nan;100073.22;5028036;28;19921;-83
2023/12/21 00:03:09;;;;;;;;;;;;;;;10.65;nan;100066.25;5027157;28;20449;-84
2023/12/21 00:05:34;;;;;;;;;;;;;;;10.52;nan;100057.63;5008903;28;19928;-85
2023/12/21 00:07:59;;;;;;;;;;;;;;;10.48;nan;100056.56;5026888;28;20052;-84
2023/12/21 00:10:25;;;;;;;;;;;;;;;10.38;nan;100040.44;5026026;28;19925;-85
2023/12/21 00:12:50;;;;;;;;;;;;;;;10.34;nan;100039.38;5027568;28;19925;-85
2023/12/21 00:15:15;;;;;;;;;;;;;;;10.25;nan;100030.25;5027987;28;19932;-85
2023/12/21 00:17:40;;;;;;;;;;;;;;;10.26;nan;100031.84;5026907;28;20527;-84
2023/12/21 00:20:06;;;;;;;;;;;;;;;10.18;nan;100025.09;5027467;28;19928;-84
2023/12/21 00:22:32;;;;;;;;;;;;;;;10.22;nan;100025.41;5026826;28;19925;-85
2023/12/21 00:24:57;;;;;;;;;;;;;;;10.10;nan;100017.59;5026085;28;19920;-85
2023/12/21 00:27:23;;;;;;;;;;;;;;;10.00;nan;100018.34;5025713;28;19925;-85
2023/12/21 00:29:48;;;;;;;;;;;;;;;10.02;nan;100004.69;5030149;28;20298;-85
2023/12/21 00:32:13;;;;;;;;;;;;;;;10.02;nan;100010.03;5029626;28;19960;-85
2023/12/21 00:34:38;;;;;;;;;;;;;;;10.05;nan;100006.84;5029732;28;19959;-86
2023/12/21 00:37:04;;;;;;;;;;;;;;;10.03;nan;99997.47;5030149;28;20389;-85
2023/12/21 00:39:29;;;;;;;;;;;;;;;9.93;nan;99992.91;5028391;28;19976;-85
2023/12/21 00:41:54;;;;;;;;;;;;;;;9.86;nan;99984.28;5028905;28;19921;-85
2023/12/21 00:44:20;;;;;;;;;;;;;;;9.80;nan;99988.81;5030121;28;19932;-85
2023/12/21 00:46:45;;;;;;;;;;;;;;;9.85;nan;99978.13;5029304;28;20066;-85
2023/12/21 00:49:10;;;;;;;;;;;;;;;9.74;nan;99968.47;5029074;28;19932;-85
2023/12/21 00:51:35;;;;;;;;;;;;;;;9.67;nan;99966.03;5029293;28;19929;-85
2023/12/21 00:54:01;;;;;;;;;;;;;;;9.56;nan;99955.56;5028699;28;19925;-86
2023/12/21 00:56:26;;;;;;;;;;;;;;;9.45;nan;99953.88;5028573;28;20015;-85
2023/12/21 00:58:51;;;;;;;;;;;;;;;9.41;nan;99945.59;5028196;28;20008;-86
2023/12/21 01:01:16;;;;;;;;;;;;;;;9.35;nan;99930.59;5027665;28;20002;-85
2023/12/21 01:03:42;;;;;;;;;;;;;;;9.37;nan;99929.25;5028077;28;19975;-85
2023/12/21 01:06:07;;;;;;;;;;;;;;;9.41;nan;99920.72;5029137;28;19932;-85
2023/12/21 01:08:32;;;;;;;;;;;;;;;9.41;nan;99908.16;5028199;28;21895;-85
2023/12/21 01:10:57;;;;;;;;;;;;;;;9.47;nan;99907.09;5029846;28;20477;-85
2023/12/21 01:13:23;;;;;;;;;;;;;;;9.49;nan;99893.47;5026681;28;20377;-85
2023/12/21 01:15:48;;;;;;;;;;;;;;;9.53;nan;99882.00;5028432;28;19928;-85
2023/12/21 01:18:13;;;;;;;;;;;;;;;9.54;nan;99890.84;5027308;28;20062;-85
2023/12/21 01:20:38;;;;;;;;;;;;;;;9.49;nan;99885.44;5028922;28;19932;-85
2023/12/21 01:23:04;;;;;;;;;;;;;;;9.45;nan;99871.00;5031728;28;20419;-84
2023/12/21 01:25:29;;;;;;;;;;;;;;;9.46;nan;99867.25;5031572;28;19932;-85
2023/12/21 01:27:54;;;;;;;;;;;;;;;9.47;nan;99868.88;5031580;28;20633;-85
2023/12/21 01:30:21;;;;;;;;;;;;;;;9.45;nan;99865.66;5014445;28;19932;-85
2023/12/21 01:32:46;;;;;;;;;;;;;;;9.46;nan;99853.88;5032709;28;19925;-85
2023/12/21 01:35:12;;;;;;;;;;;;;;;9.46;nan;99856.56;5032513;28;21256;-85
2023/12/21 01:37:37;;;;;;;;;;;;;;;9.46;nan;99838.66;5031972;28;20761;-84
2023/12/21 01:40:03;;;;;;;;;;;;;;;9.50;nan;99833.56;5033207;28;19989;-85
2023/12/21 01:42:29;;;;;;;;;;;;;;;9.56;nan;99825.31;5032738;28;19932;-85
2023/12/21 01:44:54;;;;;;;;;;;;;;;9.66;nan;99808.47;5032467;28;21161;-85
2023/12/21 01:47:19;;;;;;;;;;;;;;;9.73;nan;99803.69;5032257;28;19925;-86
2023/12/21 01:49:45;;;;;;;;;;;;;;;9.78;nan;99800.22;5033739;28;19921;-85
2023/12/21 01:52:10;;;;;;;;;;;;;;;9.84;nan;99783.91;5033097;28;19925;-85
2023/12/21 01:54:36;;;;;;;;;;;;;;;9.92;nan;99786.06;5031457;28;19980;-85
2023/12/21 01:57:02;;;;;;;;;;;;;;;9.98;nan;99778.81;5033255;28;20325;-85
2023/12/21 01:59:29;;;;;;;;;;;;;;;10.06;nan;99764.13;5031631;28;19972;-85
2023/12/21 02:01:54;;;;;;;;;;;;;;;10.11;nan;99754.22;5033605;28;19924;-86
2023/12/21 02:04:20;;;;;;;;;;;;;;;10.17;nan;99755.81;5031898;28;19936;-85
2023/12/21 02:06:45;;;;;;;;;;;;;;;10.23;nan;99751.28;5032408;28;19925;-85
2023/12/21 02:09:13;;;;;;;;;;;;;;;10.28;nan;99737.91;5030349;28;20408;-86
2023/12/21 02:11:38;;;;;;;;;;;;;;;10.32;nan;99736.28;5030683;28;19979;-84
2023/12/21 02:14:03;;;;;;;;;;;;;;;10.36;nan;99729.31;5032173;28;20434;-85
2023/12/21 02:16:35;;;;;;;;;;;;;;;10.37;nan;99722.06;5030902;28;19924;-86
2023/12/21 02:19:01;;;;;;;;;;;;;;;10.39;nan;99725.28;5031946;28;19924;-85
2023/12/21 02:21:29;;;;;;;;;;;;;;;10.38;nan;99703.06;5032100;28;19968;-85
2023/12/21 02:23:56;;;;;;;;;;;;;;;10.38;nan;99703.06;5032768;28;20389;-84
2023/12/21 02:26:21;;;;;;;;;;;;;;;10.39;nan;99688.59;5031879;28;20308;-85
2023/12/21 02:28:47;;;;;;;;;;;;;;;10.35;nan;99676.03;5032487;28;19925;-85
2023/12/21 02:31:12;;;;;;;;;;;;;;;10.33;nan;99668.25;5032617;28;19933;-85
2023/12/21 02:33:37;;;;;;;;;;;;;;;10.33;nan;99656.75;5030628;28;19968;-85
2023/12/21 02:36:03;;;;;;;;;;;;;;;10.32;nan;99647.13;5033108;28;20563;-85
2023/12/21 02:38:28;;;;;;;;;;;;;;;10.27;nan;99645.28;5029736;28;19931;-86
2023/12/21 02:40:53;;;;;;;;;;;;;;;10.26;nan;99632.97;5033295;28;19925;-85
2023/12/21 02:43:19;;;;;;;;;;;;;;;10.28;nan;99634.28;5031857;28;19921;-86
2023/12/21 02:45:44;;;;;;;;;;;;;;;10.26;nan;99641.78;5013488;28;20011;-86
2023/12/21 02:48:10;;;;;;;;;;;;;;;10.27;nan;99626.53;5032529;28;20411;-85
2023/12/21 02:50:35;;;;;;;;;;;;;;;10.20;nan;99626.78;5031494;28;19921;-84
2023/12/21 02:53:00;;;;;;;;;;;;;;;10.20;nan;99625.97;5015031;28;20309;-85
2023/12/21 02:55:26;;;;;;;;;;;;;;;10.23;nan;99612.06;5031074;28;20577;-85
2023/12/21 02:57:51;;;;;;;;;;;;;;;10.28;nan;99607.50;5031872;28;19952;-85
2023/12/21 03:00:16;;;;;;;;;;;;;;;10.34;nan;99597.56;5031590;28;19929;-85
2023/12/21 03:02:42;;;;;;;;;;;;;;;10.38;nan;99592.47;5030913;28;19931;-85
2023/12/21 03:05:07;;;;;;;;;;;;;;;10.38;nan;99585.25;5031167;28;19975;-85
2023/12/21 03:07:32;;;;;;;;;;;;;;;10.39;nan;99569.97;5031342;28;20043;-85
2023/12/21 03:09:58;;;;;;;;;;;;;;;10.35;nan;99574.28;5033555;28;19925;-85
2023/12/21 03:12:23;;;;;;;;;;;;;;;10.32;nan;99564.94;5031595;28;19983;-85
2023/12/21 03:14:48;;;;;;;;;;;;;;;10.33;nan;99561.16;5030336;28;19921;-86
2023/12/21 03:17:13;;;;;;;;;;;;;;;10.34;nan;99552.06;5031564;28;20423;-86
2023/12/21 03:19:39;;;;;;;;;;;;;;;10.35;nan;99559.03;5030825;28;19929;-86
2023/12/21 03:22:04;;;;;;;;;;;;;;;10.39;nan;99549.34;5030675;28;20435;-85
2023/12/21 03:24:29;;;;;;;;;;;;;;;10.40;nan;99540.25;5030652;28;20028;-85
2023/12/21 03:26:54;;;;;;;;;;;;;;;10.47;nan;99548.78;5031226;28;19925;-85
2023/12/21 03:29:20;;;;;;;;;;;;;;;10.52;nan;99534.56;5032750;28;19928;-86
2023/12/21 03:31:45;;;;;;;;;;;;;;;10.55;nan;99539.38;5030698;28;19925;-85
2023/12/21 03:34:10;;;;;;;;;;;;;;;10.58;nan;99542.28;5030643;28;19925;-85
2023/12/21 03:36:35;;;;;;;;;;;;;;;10.65;nan;99528.59;5012754;28;19944;-84
2023/12/21 03:39:01;;;;;;;;;;;;;;;10.69;nan;99526.16;5030042;28;19929;-85
2023/12/21 03:41:26;;;;;;;;;;;;;;;10.71;nan;99532.03;5030224;28;20530;-85
2023/12/21 03:43:51;;;;;;;;;;;;;;;10.74;nan;99526.13;5031247;28;19925;-85
2023/12/21 03:46:16;;;;;;;;;;;;;;;10.78;nan;99519.16;5030842;28;19925;-85
2023/12/21 03:48:42;;;;;;;;;;;;;;;10.82;nan;99520.19;5030517;28;21660;-85
2023/12/21 03:51:07;;;;;;;;;;;;;;;10.84;nan;99523.38;5030761;28;20294;-85
2023/12/21 03:53:32;;;;;;;;;;;;;;;10.88;nan;99519.06;5030118;28;19925;-86
2023/12/21 03:55:58;;;;;;;;;;;;;;;10.93;nan;99515.53;5030818;28;20399;-85
2023/12/21 03:58:23;;;;;;;;;;;;;;;10.95;nan;99511.50;5029851;28;20368;-85
2023/12/21 04:00:48;;;;;;;;;;;;;;;10.96;nan;99521.16;5031801;28;19998;-85
2023/12/21 04:03:13;;;;;;;;;;;;;;;10.99;nan;99517.09;5029915;28;19925;-85
2023/12/21 04:05:39;;;;;;;;;;;;;;;10.97;nan;99517.38;5029999;28;19950;-85
2023/12/21 04:08:05;;;;;;;;;;;;;;;11.00;nan;99513.34;5030084;28;21321;-86
2023/12/21 04:10:30;;;;;;;;;;;;;;;11.01;nan;99514.94;5031163;28;19924;-85
2023/12/21 04:12:55;;;;;;;;;;;;;;;11.01;nan;99510.38;5030257;28;19924;-85
2023/12/21 04:15:20;;;;;;;;;;;;;;;11.05;nan;99511.41;5029768;28;19920;-85
2023/12/21 04:17:46;;;;;;;;;;;;;;;11.09;nan;99507.09;5028569;28;19956;-85
2023/12/21 04:20:11;;;;;;;;;;;;;;;11.09;nan;99500.91;5012536;28;19929;-86
2023/12/21 04:22:36;;;;;;;;;;;;;;;11.10;nan;99505.19;5029375;28;19951;-86
2023/12/21 04:25:02;;;;;;;;;;;;;;;11.11;nan;99501.44;5029617;28;19960;-85
2023/12/21 04:27:28;;;;;;;;;;;;;;;11.14;nan;99490.97;5028370;28;19932;-85
2023/12/21 04:29:53;;;;;;;;;;;;;;;11.17;nan;99492.28;5029480;28;19932;-85
2023/12/21 04:32:19;;;;;;;;;;;;;;;11.16;nan;99501.41;5030681;28;19925;-85
2023/12/21 04:34:44;;;;;;;;;;;;;;;11.15;nan;99492.56;5030949;28;20483;-85
2023/12/21 04:37:10;;;;;;;;;;;;;;;11.17;nan;99490.41;5030913;28;19917;-85
2023/12/21 04:39:35;;;;;;;;;;;;;;;11.17;nan;99479.69;5029127;28;19929;-85
2023/12/21 04:42:00;;;;;;;;;;;;;;;11.19;nan;99482.06;5030867;28;21281;-85
2023/12/21 04:44:25;;;;;;;;;;;;;;;11.22;nan;99483.38;5011292;28;19931;-85
2023/12/21 04:46:51;;;;;;;;;;;;;;;11.29;nan;99481.16;5013193;28;19924;-85
2023/12/21 04:49:19;;;;;;;;;;;;;;;11.33;nan;99476.84;5029215;28;19924;-86
2023/12/21 04:51:45;;;;;;;;;;;;;;;11.37;nan;99467.94;5030026;28;19925;-86
2023/12/21 04:54:11;;;;;;;;;;;;;;;11.43;nan;99460.66;5030638;28;20432;-85
2023/12/21 04:56:42;;;;;;;;;;;;;;;11.45;nan;99451.22;5034778;28;20015;-85
2023/12/21 04:59:07;;;;;;;;;;;;;;;11.50;nan;99458.44;5037214;28;19991;-85
2023/12/21 05:01:33;;;;;;;;;;;;;;;11.52;nan;99463.53;5035796;28;19939;-85
2023/12/21 05:03:59;;;;;;;;;;;;;;;11.53;nan;99460.53;5037601;28;20014;-85
2023/12/21 05:06:24;;;;;;;;;;;;;;;11.57;nan;99464.25;5036712;28;20012;-85
2023/12/21 05:08:50;;;;;;;;;;;;;;;11.60;nan;99462.88;5036713;28;19929;-85
2023/12/21 05:11:15;;;;;;;;;;;;;;;11.65;nan;99442.16;5036156;28;19925;-85
2023/12/21 05:13:40;;;;;;;;;;;;;;;11.69;nan;99447.75;5035375;28;19952;-85
2023/12/21 05:16:05;;;;;;;;;;;;;;;11.71;nan;99441.03;5017490;28;20324;-85
2023/12/21 05:18:31;;;;;;;;;;;;;;;11.73;nan;99441.53;5034631;28;19925;-85
2023/12/21 05:20:56;;;;;;;;;;;;;;;11.74;nan;99443.13;5036610;28;19925;-84
2023/12/21 05:23:21;;;;;;;;;;;;;;;11.76;nan;99443.63;5036065;28;20386;-84
2023/12/21 05:25:47;;;;;;;;;;;;;;;11.80;nan;99427.78;5035246;28;19929;-85
2023/12/21 05:28:15;;;;;;;;;;;;;;;11.80;nan;99423.22;5008640;28;19972;-85
2023/12/21 05:30:40;;;;;;;;;;;;;;;11.80;nan;99420.53;5035445;28;21639;-85
2023/12/21 05:33:06;;;;;;;;;;;;;;;11.82;nan;99411.38;5035675;28;19925;-84
2023/12/21 05:35:31;;;;;;;;;;;;;;;11.83;nan;99413.78;5035319;28;19921;-85
2023/12/21 05:37:57;;;;;;;;;;;;;;;11.83;nan;99402.25;5034826;28;19925;-85
2023/12/21 05:40:22;;;;;;;;;;;;;;;11.81;nan;99405.22;5034125;28;19935;-85
2023/12/21 05:42:47;;;;;;;;;;;;;;;11.83;nan;99394.19;5035958;28;19924;-86
2023/12/21 05:45:13;;;;;;;;;;;;;;;11.86;nan;99390.97;5035189;28;19925;-84
2023/12/21 05:47:38;;;;;;;;;;;;;;;11.87;nan;99390.66;5035158;28;19921;-84
2023/12/21 05:50:04;;;;;;;;;;;;;;;11.89;nan;99383.13;5036688;28;19924;-84
2023/12/21 05:52:29;;;;;;;;;;;;;;;11.92;nan;99381.75;5034891;28;19925;-85
2023/12/21 05:54:54;;;;;;;;;;;;;;;11.96;nan;99377.38;5035278;28;20407;-84
2023/12/21 05:57:20;;;;;;;;;;;;;;;11.96;nan;99363.97;5035045;28;19925;-84
2023/12/21 05:59:45;;;;;;;;;;;;;;;11.96;nan;99366.66;5035624;28;19929;-85
2023/12/21 06:02:10;;;;;;;;;;;;;;;11.96;nan;99355.91;5036111;28;20296;-85
2023/12/21 06:04:35;;;;;;;;;;;;;;;11.96;nan;99350.53;5035089;28;19930;-84
2023/12/21 06:07:01;;;;;;;;;;;;;;;11.99;nan;99350.75;5033594;28;19921;-84
2023/12/21 06:09:27;;;;;;;;;;;;;;;12.02;nan;99349.38;5031182;28;20298;-84
2023/12/21 06:11:52;;;;;;;;;;;;;;;12.07;nan;99338.56;5031801;28;20012;-84
2023/12/21 06:14:17;;;;;;;;;;;;;;;12.09;nan;99331.81;5032342;28;19951;-84
2023/12/21 06:16:42;;;;;;;;;;;;;;;12.12;nan;99326.94;5032863;28;20696;-84
2023/12/21 06:19:09;;;;;;;;;;;;;;;12.14;nan;99322.09;5032009;28;19929;-84
2023/12/21 06:21:37;;;;;;;;;;;;;;;12.18;nan;99318.50;5031497;28;19932;-84
2023/12/21 06:24:03;;;;;;;;;;;;;;;12.18;nan;99313.16;5031937;28;20619;-84
2023/12/21 06:26:28;;;;;;;;;;;;;;;12.19;nan;99311.25;5032507;28;19924;-84
2023/12/21 06:28:54;;;;;;;;;;;;;;;12.19;nan;99305.88;5032269;28;20401;-84
2023/12/21 06:31:19;;;;;;;;;;;;;;;12.18;nan;99302.41;5031739;28;19940;-84
2023/12/21 06:33:44;;;;;;;;;;;;;;;12.18;nan;99299.72;5032193;28;21158;-83
2023/12/21 06:36:10;;;;;;;;;;;;;;;12.20;nan;99284.09;5033121;28;19933;-83
2023/12/21 06:38:35;;;;;;;;;;;;;;;12.20;nan;99284.09;5031673;28;19970;-84
2023/12/21 06:41:00;;;;;;;;;;;;;;;12.18;nan;99272.06;5032160;28;20440;-84
2023/12/21 06:43:26;;;;;;;;;;;;;;;12.19;nan;99277.16;5032275;28;19932;-84
2023/12/21 06:45:51;;;;;;;;;;;;;;;12.21;nan;99252.69;5033495;28;20475;-84
2023/12/21 06:48:16;;;;;;;;;;;;;;;12.23;nan;99251.31;5013002;28;19948;-84
2023/12/21 06:50:42;;;;;;;;;;;;;;;12.19;nan;99244.94;5029495;28;20516;-84
2023/12/21 06:53:07;;;;;;;;;;;;;;;12.18;nan;99235.28;5030957;28;19925;-84
2023/12/21 06:55:32;;;;;;;;;;;;;;;12.17;nan;99232.91;5031322;28;19925;-84
2023/12/21 06:57:57;;;;;;;;;;;;;;;12.16;nan;99232.09;5031303;28;20379;-83
2023/12/21 07:00:23;;;;;;;;;;;;;;;12.13;nan;99221.94;5030721;28;19932;-84
2023/12/21 07:02:48;;;;;;;;;;;;;;;12.05;nan;99206.53;5021967;28;20420;-83
2023/12/21 07:05:13;;;;;;;;;;;;;;;12.03;nan;99200.66;5032311;28;20032;-84
2023/12/21 07:07:38;;;;;;;;;;;;;;;12.07;nan;99193.63;5007747;28;19971;-84
2023/12/21 07:10:04;;;;;;;;;;;;;;;12.09;nan;99194.91;5026608;28;20074;-84
2023/12/21 07:12:29;;;;;;;;;;;;;;;12.10;nan;99179.59;5030647;28;19917;-83
2023/12/21 07:14:55;;;;;;;;;;;;;;;12.12;nan;99174.72;5031833;28;19933;-83
2023/12/21 07:17:20;;;;;;;;;;;;;;;12.14;nan;99159.09;5030709;28;20550;-83
2023/12/21 07:19:46;;;;;;;;;;;;;;;12.20;nan;99141.81;5029998;28;19929;-83
2023/12/21 07:22:11;;;;;;;;;;;;;;;12.27;nan;99133.38;5030902;28;20074;-83
2023/12/21 07:24:37;;;;;;;;;;;;;;;12.34;nan;99133.75;5030412;28;19931;-83
2023/12/21 07:27:03;;;;;;;;;;;;;;;12.41;nan;99123.44;5031767;28;19932;-84
2023/12/21 07:29:28;;;;;;;;;;;;;;;12.49;nan;99116.53;5029883;28;20423;-83
2023/12/21 07:31:54;;;;;;;;;;;;;;;12.54;nan;99103.00;5030600;28;20004;-83
2023/12/21 07:34:19;;;;;;;;;;;;;;;12.61;nan;99103.41;5027340;28;19931;-84
2023/12/21 07:36:44;;;;;;;;;;;;;;;12.70;nan;99098.91;5029152;28;19940;-84
2023/12/21 07:39:11;;;;;;;;;;;;;;;12.71;nan;99097.81;5031707;28;20012;-84
2023/12/21 07:41:37;;;;;;;;;;;;;;;12.76;nan;99080.78;5030078;28;19956;-84
2023/12/21 07:44:02;;;;;;;;;;;;;;;12.73;nan;99074.09;5024353;28;19954;-83
2023/12/21 07:46:27;;;;;;;;;;;;;;;12.77;nan;99056.31;5028949;28;19921;-84
2023/12/21 07:48:53;;;;;;;;;;;;;;;12.83;nan;99049.69;5030888;28;20016;-84
2023/12/21 07:51:18;;;;;;;;;;;;;;;12.88;nan;99049.56;5013238;28;20450;-83
2023/12/21 07:53:43;;;;;;;;;;;;;;;12.91;nan;99040.91;5029852;28;19925;-84
2023/12/21 07:56:09;;;;;;;;;;;;;;;12.96;nan;99034.63;5030658;28;19939;-83
2023/12/21 07:58:34;;;;;;;;;;;;;;;12.98;nan;99010.91;5028922;28;19931;-83
2023/12/21 08:00:59;;;;;;;;;;;;;;;13.07;nan;98997.53;5030034;28;20558;-84
2023/12/21 08:03:25;;;;;;;;;;;;;;;13.05;nan;99002.41;5029652;28;20011;-84
2023/12/21 08:05:50;;;;;;;;;;;;;;;13.09;nan;99003.38;5030513;28;21230;-85
2023/12/21 08:08:15;;;;;;;;;;;;;;;13.11;nan;98980.50;5030349;28;20055;-84
2023/12/21 08:10:40;;;;;;;;;;;;;;;13.15;nan;98976.09;5030081;28;21273;-84
2023/12/21 08:13:09;;;;;;;;;;;;;;;13.17;nan;98970.41;5029671;28;19925;-84
2023/12/21 08:15:34;;;;;;;;;;;;;;;13.20;nan;98953.66;5021744;28;19990;-83
2023/12/21 08:18:00;;;;;;;;;;;;;;;13.19;nan;98946.69;5029994;28;19929;-84
2023/12/21 08:20:25;;;;;;;;;;;;;;;13.27;nan;98935.19;5029282;28;20416;-83
2023/12/21 08:22:50;;;;;;;;;;;;;;;13.28;nan;98936.75;5026500;28;19929;-84
2023/12/21 08:25:16;;;;;;;;;;;;;;;13.29;nan;98924.94;5028223;28;19944;-83
2023/12/21 08:27:41;;;;;;;;;;;;;;;13.32;nan;98921.63;5029067;28;20653;-83
2023/12/21 08:30:07;;;;;;;;;;;;;;;13.32;nan;98905.47;5029414;28;20326;-83
2023/12/21 08:32:32;;;;;;;;;;;;;;;13.37;nan;98910.72;5028710;28;19928;-83
2023/12/21 08:34:57;;;;;;;;;;;;;;;13.35;nan;98896.78;5012130;28;20043;-83
2023/12/21 08:37:23;;;;;;;;;;;;;;;13.36;nan;98887.63;5029517;28;19924;-84
2023/12/21 08:39:48;;;;;;;;;;;;;;;13.40;nan;98867.03;5029624;28;19920;-83
2023/12/21 08:42:13;;;;;;;;;;;;;;;13.44;nan;98859.94;5030267;28;19925;-83
2023/12/21 08:44:39;;;;;;;;;;;;;;;13.43;nan;98871.00;5029930;28;20434;-83
2023/12/21 08:47:05;;;;;;;;;;;;;;;13.47;nan;98853.94;5029759;28;19924;-83
2023/12/21 08:49:30;;;;;;;;;;;;;;;13.42;nan;98845.22;5029111;28;20560;-85
2023/12/21 08:51:55;;;;;;;;;;;;;;;13.40;nan;98833.97;5028788;28;19931;-83
2023/12/21 08:54:21;;;;;;;;;;;;;;;13.40;nan;98836.66;5029541;28;19928;-82
2023/12/21 08:56:46;;;;;;;;;;;;;;;13.41;nan;98822.91;5028185;28;20428;-83
2023/12/21 08:59:12;;;;;;;;;;;;;;;13.45;nan;98810.41;5029394;28;19933;-84
2023/12/21 09:01:38;;;;;;;;;;;;;;;13.49;nan;98802.53;5029097;28;20397;-84
2023/12/21 09:04:04;;;;;;;;;;;;;;;13.47;nan;98797.47;5029499;28;20329;-82
2023/12/21 09:06:30;;;;;;;;;;;;;;;13.51;nan;98794.91;5011574;28;19968;-83
2023/12/21 09:08:55;;;;;;;;;;;;;;;13.50;nan;98796.03;5029580;28;20023;-83
2023/12/21 09:11:20;;;;;;;;;;;;;;;13.46;nan;98778.91;5029472;28;20373;-83
2023/12/21 09:13:45;;;;;;;;;;;;;;;13.42;nan;98780.66;5027544;28;19987;-84
2023/12/21 09:16:11;;;;;;;;;;;;;;;13.40;nan;98770.22;5027209;28;19967;-83
2023/12/21 09:18:36;;;;;;;;;;;;;;;13.34;nan;98765.31;5026514;28;19963;-83
2023/12/21 09:21:03;;;;;;;;;;;;;;;13.37;nan;98749.31;5009993;28;20376;-83
2023/12/21 09:23:29;;;;;;;;;;;;;;;13.29;nan;98742.84;5028147;28;19986;-83
2023/12/21 09:25:54;;;;;;;;;;;;;;;13.32;nan;98733.34;5028108;28;20554;-83
2023/12/21 09:28:19;;;;;;;;;;;;;;;13.33;nan;98718.78;5029652;28;19925;-83
2023/12/21 09:30:44;;;;;;;;;;;;;;;13.40;nan;98713.72;5028502;28;20753;-83
2023/12/21 09:33:11;;;;;;;;;;;;;;;13.43;nan;98705.00;5027869;28;19925;-83
2023/12/21 09:35:36;;;;;;;;;;;;;;;13.42;nan;98698.06;5028466;28;19921;-83
2023/12/21 09:38:02;;;;;;;;;;;;;;;13.42;nan;98684.59;5026767;28;19925;-83
2023/12/21 09:40:29;;;;;;;;;;;;;;;13.38;nan;98680.97;5026951;28;19929;-84
2023/12/21 09:42:55;;;;;;;;;;;;;;;13.44;nan;98674.31;5030433;28;19925;-84
2023/12/21 09:45:21;;;;;;;;;;;;;;;13.36;nan;98666.25;5032338;28;19921;-82
2023/12/21 09:47:48;;;;;;;;;;;;;;;13.41;nan;98637.28;5031135;28;19974;-83
2023/12/21 09:50:15;;;;;;;;;;;;;;;13.30;nan;98646.81;5031969;28;19958;-84
2023/12/21 09:52:40;;;;;;;;;;;;;;;13.40;nan;98622.25;5030431;28;19931;-83
2023/12/21 09:55:07;;;;;;;;;;;;;;;13.34;nan;98604.72;5031018;28;19925;-82
2023/12/21 09:57:37;;;;;;;;;;;;;;;13.36;nan;98604.41;5033627;28;19986;-83
2023/12/21 10:00:02;;;;;;;;;;;;;;;13.36;nan;98589.06;5042379;28;20397;-82
2023/12/21 10:02:31;;;;;;;;;;;;;;;13.41;nan;98578.13;5030301;28;19927;-83
2023/12/21 10:04:56;;;;;;;;;;;;;;;13.44;nan;98574.78;5030038;28;20278;-82
2023/12/21 10:07:23;;;;;;;;;;;;;;;13.48;nan;98550.75;5030923;28;19932;-83
2023/12/21 10:09:48;;;;;;;;;;;;;;;13.49;nan;98539.66;5030387;28;19964;-83
2023/12/21 10:12:13;;;;;;;;;;;;;;;13.49;nan;98530.81;5030316;28;20650;-83
2023/12/21 10:14:39;;;;;;;;;;;;;;;13.53;nan;98529.06;5026686;28;19982;-83
2023/12/21 10:17:09;;;;;;;;;;;;;;;13.51;nan;98502.47;5030137;28;21177;-82
2023/12/21 10:19:35;;;;;;;;;;;;;;;13.60;nan;98508.59;5026050;28;20886;-83
2023/12/21 10:22:00;;;;;;;;;;;;;;;13.64;nan;98492.59;5029323;28;19924;-82
2023/12/21 10:24:26;;;;;;;;;;;;;;;13.68;nan;98490.06;5028232;28;19932;-82
2023/12/21 10:26:52;;;;;;;;;;;;;;;13.67;nan;98475.81;5030739;28;19927;-82
2023/12/21 10:29:17;;;;;;;;;;;;;;;13.59;nan;98461.28;5031002;28;19921;-83
2023/12/21 10:31:44;;;;;;;;;;;;;;;13.61;nan;98440.22;5017014;28;19955;-83
2023/12/21 10:34:09;;;;;;;;;;;;;;;13.68;nan;98441.63;5029423;28;19971;-83
2023/12/21 10:36:37;;;;;;;;;;;;;;;13.68;nan;98439.72;5027820;28;20531;-82
2023/12/21 10:39:03;;;;;;;;;;;;;;;13.72;nan;98419.13;5029385;28;19929;-82
2023/12/21 10:41:29;;;;;;;;;;;;;;;13.72;nan;98408.34;5030120;28;19921;-84
2023/12/21 10:43:54;;;;;;;;;;;;;;;13.70;nan;98404.41;5029836;28;19987;-83
2023/12/21 10:46:20;;;;;;;;;;;;;;;13.79;nan;98394.38;5029108;28;20408;-83
2023/12/21 10:48:46;;;;;;;;;;;;;;;13.80;nan;98379.81;5028512;28;19925;-83
2023/12/21 10:51:12;;;;;;;;;;;;;;;13.75;nan;98377.31;5030709;28;19925;-82
2023/12/21 10:53:38;;;;;;;;;;;;;;;13.72;nan;98359.13;5028503;28;19928;-83
2023/12/21 10:56:04;;;;;;;;;;;;;;;13.72;nan;98351.84;5034256;28;19932;-82
2023/12/21 10:58:30;;;;;;;;;;;;;;;13.76;nan;98343.91;5036700;28;19925;-82
2023/12/21 11:00:56;;;;;;;;;;;;;;;13.71;nan;98333.34;5044320;28;20317;-82
2023/12/21 11:03:21;;;;;;;;;;;;;;;13.73;nan;98336.50;5035769;28;19966;-82
2023/12/21 11:05:47;;;;;;;;;;;;;;;13.72;nan;98314.19;5029494;28;19924;-82
2023/12/21 11:08:12;;;;;;;;;;;;;;;13.74;nan;98295.00;5028137;28;20393;-82
2023/12/21 11:10:38;;;;;;;;;;;;;;;13.78;nan;98295.91;5028436;28;21126;-82
2023/12/21 11:13:04;;;;;;;;;;;;;;;13.81;nan;98296.03;5028487;28;20436;-82
2023/12/21 11:15:30;;;;;;;;;;;;;;;13.86;nan;98270.84;5036821;28;20695;-82
2023/12/21 11:18:00;;;;;;;;;;;;;;;13.83;nan;98272.31;5028526;28;20821;-82
2023/12/21 11:20:28;;;;;;;;;;;;;;;13.93;nan;98270.31;5027171;28;20413;-82
2023/12/21 11:22:53;;;;;;;;;;;;;;;13.92;nan;98261.47;5030038;28;19970;-82
2023/12/21 11:25:22;;;;;;;;;;;;;;;13.95;nan;98241.16;5029096;28;19924;-82
2023/12/21 11:27:48;;;;;;;;;;;;;;;13.93;nan;98249.56;5028795;28;19931;-83
2023/12/21 11:30:14;;;;;;;;;;;;;;;13.94;nan;98218.84;5010905;28;19920;-81
2023/12/21 11:32:43;;;;;;;;;;;;;;;13.95;nan;98225.00;5028826;28;19920;-82
2023/12/21 11:35:25;;;;;;;;;;;;;;;14.01;nan;98221.00;5029489;28;19928;-82
2023/12/21 11:37:58;;;;;;;;;;;;;;;14.04;nan;98207.66;5028878;28;19925;-81
2023/12/21 11:40:23;;;;;;;;;;;;;;;14.07;nan;98196.22;5026552;28;20014;-82
2023/12/21 11:42:49;;;;;;;;;;;;;;;14.10;nan;98195.56;5024374;28;20015;-83
2023/12/21 11:45:22;;;;;;;;;;;;;;;14.09;nan;98183.22;5027233;28;19924;-83
2023/12/21 11:47:48;;;;;;;;;;;;;;;14.11;nan;98169.41;5025003;28;20020;-82
2023/12/21 11:50:15;;;;;;;;;;;;;;;14.16;nan;98150.34;5023802;28;19940;-83
2023/12/21 11:52:43;;;;;;;;;;;;;;;14.20;nan;98143.97;5014249;28;19924;-82
2023/12/21 11:55:08;;;;;;;;;;;;;;;14.30;nan;98139.25;5039975;28;19928;-82
2023/12/21 11:57:39;;;;;;;;;;;;;;;14.29;nan;98140.38;5025481;28;19949;-82
2023/12/21 12:00:09;;;;;;;;;;;;;;;14.26;nan;98131.06;5036286;28;19929;-81
2023/12/21 12:02:34;;;;;;;;;;;;;;;14.26;nan;98132.97;5039705;28;19951;-83
2023/12/21 12:05:02;;;;;;;;;;;;;;;14.35;nan;98114.78;5037081;28;19921;-81
2023/12/21 12:07:28;;;;;;;;;;;;;;;14.44;nan;98099.34;5034113;28;19928;-82
2023/12/21 12:09:54;;;;;;;;;;;;;;;14.44;nan;98092.03;5038469;28;20591;-81
2023/12/21 12:12:19;;;;;;;;;;;;;;;14.45;nan;98090.91;5041212;28;19916;-81
2023/12/21 12:14:45;;;;;;;;;;;;;;;14.50;nan;98084.50;5026827;28;20686;-82
2023/12/21 12:17:10;;;;;;;;;;;;;;;14.55;nan;98086.22;5037101;28;20297;-82
2023/12/21 12:19:39;;;;;;;;;;;;;;;14.56;nan;98072.41;5031412;28;19991;-82
2023/12/21 12:22:04;;;;;;;;;;;;;;;14.60;nan;98070.59;5041305;28;20325;-82
2023/12/21 12:24:30;;;;;;;;;;;;;;;14.59;nan;98060.94;5043701;28;19921;-81
2023/12/21 12:26:55;;;;;;;;;;;;;;;14.56;nan;98061.63;5020734;28;19931;-81
2023/12/21 12:29:21;;;;;;;;;;;;;;;14.57;nan;98035.47;5038700;28;19995;-81
2023/12/21 12:31:47;;;;;;;;;;;;;;;14.54;nan;98014.56;5039253;28;19917;-81
2023/12/21 12:34:13;;;;;;;;;;;;;;;14.49;nan;98015.59;5041043;28;19921;-82
2023/12/21 12:36:39;;;;;;;;;;;;;;;14.50;nan;98003.69;5036653;28;19923;-82
2023/12/21 12:39:04;;;;;;;;;;;;;;;14.55;nan;98003.47;5038864;28;20011;-82
2023/12/21 12:41:31;;;;;;;;;;;;;;;14.61;nan;97994.03;5044624;28;20655;-82
2023/12/21 12:43:56;;;;;;;;;;;;;;;14.52;nan;97987.97;5032711;28;20608;-82
2023/12/21 12:46:25;;;;;;;;;;;;;;;14.51;nan;97978.31;5045051;28;20019;-82
2023/12/21 12:48:50;;;;;;;;;;;;;;;14.50;nan;97980.22;5033229;28;19932;-82
2023/12/21 12:51:15;;;;;;;;;;;;;;;14.50;nan;97963.28;5036462;28;19925;-83
2023/12/21 12:53:44;;;;;;;;;;;;;;;14.47;nan;97958.56;5040486;28;19916;-82
2023/12/21 12:56:10;;;;;;;;;;;;;;;14.49;nan;97953.63;5039064;28;20039;-82
2023/12/21 12:58:38;;;;;;;;;;;;;;;14.50;nan;97949.81;5034211;28;19956;-82